University, Washington
Current Conditions -  °F | °C
As of 6:53 PM on Friday 19 Dec 2014 (Local Time) from KBFI Reporting Station
Broken Clouds Broken Clouds  
Wind Chill: 51°   Ceiling: 6000
Heat Index: 51°   Visibility: 10mi
Dew Point: 37°   Wind: 7mph
Humidity: 59%   Direction: 160°SSE
Pressure: 29.95"   Gusts: NA
Location:  47.6619°N, 122.296°W
Report Text: KBFI 200253Z 16006KT 10SM BKN060 11/03 A2995 RMK AO2 SLP141 T01060028 57002
Loading
Personal Weather Stations






























Interactive Weather Map New forecast layout! Learn more

10-Day Weather Forecast

Advertisements
Track Severe Weather on mobile